createdAt,value
2019-05-23T00:00:01.176Z,11.77
2019-05-23T00:02:50.273Z,11.47
2019-05-23T00:05:54.477Z,11.57
2019-05-23T00:08:41.798Z,12.40
2019-05-23T00:11:31.942Z,10.73
2019-05-23T00:14:24.902Z,15.43
2019-05-23T00:16:54.254Z,12.80
2019-05-23T00:19:23.992Z,16.13
2019-05-23T00:21:54.064Z,10.07
2019-05-23T00:24:24.124Z,14.20
2019-05-23T00:26:53.566Z,12.03
2019-05-23T00:29:29.216Z,13.30
2019-05-23T00:32:18.826Z,13.37
2019-05-23T00:34:50.474Z,16.70
2019-05-23T00:37:23.943Z,13.17
2019-05-23T00:39:54.362Z,14.50
2019-05-23T00:42:23.653Z,17.87
2019-05-23T00:44:54.079Z,14.87
2019-05-23T00:47:23.752Z,15.10
2019-05-23T00:49:53.415Z,13.70
2019-05-23T00:52:23.160Z,12.83
2019-05-23T00:54:52.757Z,15.07
2019-05-23T00:57:24.713Z,15.57
2019-05-23T00:59:54.071Z,17.63
2019-05-23T01:02:24.722Z,16.33
2019-05-23T01:04:54.706Z,15.43
2019-05-23T01:07:26.055Z,14.50
2019-05-23T01:09:55.440Z,16.23
2019-05-23T01:12:24.799Z,16.67
2019-05-23T01:14:54.732Z,14.57
2019-05-23T01:17:24.931Z,14.47
2019-05-23T01:19:55.951Z,15.93
2019-05-23T01:22:25.339Z,15.57
2019-05-23T01:24:56.067Z,15.33
2019-05-23T01:27:25.183Z,16.57
2019-05-23T01:29:54.514Z,15.43
2019-05-23T01:32:25.645Z,16.23
2019-05-23T01:34:55.305Z,14.40
2019-05-23T01:37:29.399Z,16.93
2019-05-23T01:40:02.138Z,14.87
2019-05-23T01:42:33.094Z,15.97
2019-05-23T01:45:02.629Z,15.23
2019-05-23T01:48:09.819Z,14.77
2019-05-23T01:50:39.347Z,18.37
2019-05-23T01:53:11.512Z,13.80
2019-05-23T01:55:41.402Z,15.93
2019-05-23T01:58:10.756Z,14.00
2019-05-23T02:00:40.204Z,18.43
2019-05-23T02:03:09.837Z,17.13
2019-05-23T02:05:39.043Z,17.50
2019-05-23T02:08:08.623Z,16.17
2019-05-23T02:10:40.299Z,13.87
2019-05-23T02:13:12.736Z,13.20
2019-05-23T02:15:42.644Z,15.63
2019-05-23T02:18:12.644Z,16.47
2019-05-23T02:20:42.026Z,14.37
2019-05-23T02:23:12.161Z,15.57
2019-05-23T02:25:42.727Z,14.20
2019-05-23T02:28:13.903Z,13.97
2019-05-23T02:30:43.436Z,15.30
2019-05-23T02:33:13.559Z,18.77
2019-05-23T02:35:43.310Z,17.13
2019-05-23T02:38:29.090Z,16.33
2019-05-23T02:41:05.059Z,15.87
2019-05-23T02:43:42.439Z,15.13
2019-05-23T02:46:29.674Z,14.90
2019-05-23T02:49:00.787Z,14.97
2019-05-23T02:51:30.373Z,13.17
2019-05-23T02:54:01.377Z,14.97
2019-05-23T02:56:32.159Z,15.27
2019-05-23T02:59:28.558Z,20.10
2019-05-23T03:02:03.917Z,15.53
2019-05-23T03:04:34.646Z,15.40
2019-05-23T03:07:03.904Z,13.37
2019-05-23T03:09:34.314Z,14.17
2019-05-23T03:12:04.356Z,14.07
2019-05-23T03:14:36.569Z,13.40
2019-05-23T03:17:10.552Z,17.23
2019-05-23T03:19:51.923Z,13.67
2019-05-23T03:24:13.206Z,14.60
2019-05-23T03:26:51.711Z,17.97
2019-05-23T03:29:21.750Z,13.77
2019-05-23T03:31:55.561Z,19.97
2019-05-23T03:34:26.660Z,14.53
2019-05-23T03:36:57.518Z,13.47
2019-05-23T03:39:27.822Z,17.53
2019-05-23T03:41:58.133Z,13.63
2019-05-23T03:44:29.199Z,15.10
2019-05-23T03:46:58.271Z,13.43
2019-05-23T03:49:28.724Z,14.37
2019-05-23T03:51:58.547Z,16.30
2019-05-23T03:54:27.871Z,14.70
2019-05-23T03:56:57.998Z,15.80
2019-05-23T03:59:28.211Z,13.03
2019-05-23T04:01:58.780Z,14.63
2019-05-23T04:04:27.845Z,13.53
2019-05-23T04:06:57.462Z,15.37
2019-05-23T04:12:08.553Z,16.57
2019-05-23T04:14:38.017Z,12.77
2019-05-23T04:17:09.252Z,11.13
2019-05-23T04:19:38.913Z,9.90
2019-05-23T04:22:08.258Z,12.97
2019-05-23T04:24:39.646Z,10.77
2019-05-23T04:27:10.550Z,9.37
2019-05-23T04:29:39.998Z,9.67
2019-05-23T04:32:09.998Z,11.53
2019-05-23T04:34:39.396Z,12.03
2019-05-23T04:37:09.852Z,10.67
2019-05-23T04:39:39.154Z,13.60
2019-05-23T04:42:08.331Z,14.70
2019-05-23T04:44:37.790Z,10.37
2019-05-23T04:47:08.624Z,9.13
2019-05-23T04:49:38.818Z,9.43
2019-05-23T04:52:08.934Z,11.10
2019-05-23T04:54:38.983Z,10.03
2019-05-23T04:57:08.895Z,11.40
2019-05-23T04:59:38.300Z,13.03
2019-05-23T05:02:24.804Z,14.53
2019-05-23T05:04:38.767Z,12.87
2019-05-23T05:07:08.653Z,12.40
2019-05-23T05:09:38.957Z,12.80
2019-05-23T05:12:09.976Z,14.03
2019-05-23T05:14:39.281Z,15.37
2019-05-23T05:17:10.292Z,16.97
2019-05-23T05:19:39.560Z,13.80
2019-05-23T05:22:09.056Z,15.90
2019-05-23T05:24:40.311Z,10.93
2019-05-23T05:27:10.029Z,12.30
2019-05-23T05:29:39.455Z,14.33
2019-05-23T05:32:10.490Z,15.60
2019-05-23T05:34:39.784Z,12.47
2019-05-23T05:37:09.370Z,13.40
2019-05-23T05:39:38.904Z,14.10
2019-05-23T05:42:09.253Z,14.70
2019-05-23T05:44:40.071Z,11.67
2019-05-23T05:47:10.342Z,11.33
2019-05-23T05:49:42.329Z,18.10
2019-05-23T05:52:11.899Z,15.17
2019-05-23T05:54:41.217Z,10.53
2019-05-23T05:57:10.859Z,12.83
2019-05-23T05:59:40.470Z,16.73
2019-05-23T06:02:11.485Z,10.33
2019-05-23T06:04:40.971Z,16.13
2019-05-23T06:07:24.687Z,11.87
2019-05-23T06:09:55.039Z,11.07
2019-05-23T06:12:24.447Z,10.47
2019-05-23T06:14:53.746Z,11.93
2019-05-23T06:17:23.329Z,12.73
2019-05-23T06:19:52.952Z,12.07
2019-05-23T06:22:22.494Z,16.30
2019-05-23T06:24:55.399Z,10.23
2019-05-23T06:28:14.979Z,9.43
2019-05-23T06:30:44.624Z,10.70
2019-05-23T06:33:23.282Z,9.97
2019-05-23T06:35:45.983Z,14.47
2019-05-23T06:38:15.592Z,12.20
2019-05-23T06:40:45.581Z,13.90
2019-05-23T06:43:16.040Z,9.93
2019-05-23T06:45:46.563Z,8.70
2019-05-23T06:48:16.162Z,9.23
2019-05-23T06:50:45.771Z,8.03
2019-05-23T06:53:14.982Z,8.93
2019-05-23T06:55:44.167Z,9.37
2019-05-23T06:58:13.772Z,17.70
2019-05-23T07:00:43.356Z,8.87
2019-05-23T07:03:12.969Z,9.60
2019-05-23T07:05:43.001Z,9.43
2019-05-23T07:08:12.609Z,8.83
2019-05-23T07:10:43.834Z,8.73
2019-05-23T07:13:13.869Z,10.23
2019-05-23T07:15:43.698Z,11.57
2019-05-23T07:18:13.548Z,10.93
2019-05-23T07:20:42.884Z,7.93
2019-05-23T07:23:13.321Z,8.90
2019-05-23T07:25:43.639Z,9.03
2019-05-23T07:28:13.066Z,10.73
2019-05-23T07:32:15.633Z,7.70
2019-05-23T07:34:45.000Z,8.53
2019-05-23T07:37:14.644Z,8.13
2019-05-23T07:40:13.946Z,9.10
2019-05-23T07:42:43.543Z,11.97
2019-05-23T07:45:15.152Z,8.30
2019-05-23T07:47:44.965Z,9.77
2019-05-23T07:50:14.420Z,10.80
2019-05-23T07:52:44.054Z,10.17
2019-05-23T07:55:24.176Z,8.80
2019-05-23T07:57:53.634Z,11.23
2019-05-23T08:00:33.727Z,11.40
2019-05-23T08:04:27.187Z,7.90
2019-05-23T08:08:16.464Z,8.03
2019-05-23T08:10:46.246Z,8.10
2019-05-23T08:13:15.788Z,8.60
2019-05-23T08:15:45.291Z,6.97
2019-05-23T08:20:16.341Z,5.97
2019-05-23T08:22:46.306Z,11.50
2019-05-23T08:25:15.970Z,7.43
2019-05-23T08:27:45.778Z,6.93
2019-05-23T08:30:15.697Z,9.00
2019-05-23T08:32:45.092Z,7.03
2019-05-23T08:35:17.828Z,7.97
2019-05-23T08:37:46.475Z,5.93
2019-05-23T08:40:17.096Z,9.07
2019-05-23T08:42:47.262Z,8.63
2019-05-23T08:45:17.099Z,8.30
2019-05-23T08:47:46.786Z,5.80
2019-05-23T08:50:17.175Z,8.30
2019-05-23T08:52:46.588Z,9.93
2019-05-23T08:55:21.966Z,8.10
2019-05-23T08:57:52.178Z,7.93
2019-05-23T09:00:22.790Z,8.23
2019-05-23T09:02:57.709Z,6.53
2019-05-23T09:08:18.443Z,5.73
2019-05-23T09:10:48.089Z,5.03
2019-05-23T09:13:17.348Z,5.40
2019-05-23T09:15:46.655Z,4.73
2019-05-23T09:18:17.115Z,7.27
2019-05-23T09:20:46.630Z,8.20
2019-05-23T09:23:16.185Z,5.00
2019-05-23T09:25:45.646Z,5.47
2019-05-23T09:28:15.051Z,3.93
2019-05-23T09:30:44.426Z,8.40
2019-05-23T09:33:14.084Z,5.47
2019-05-23T09:35:43.636Z,4.20
2019-05-23T09:38:13.231Z,4.27
2019-05-23T09:40:42.785Z,4.33
2019-05-23T09:43:12.282Z,4.25
2019-05-23T09:45:41.803Z,3.98
2019-05-23T09:48:13.609Z,7.00
2019-05-23T09:50:43.148Z,5.17
2019-05-23T09:53:14.998Z,4.37
2019-05-23T09:55:44.571Z,3.93
2019-05-23T09:58:14.314Z,5.33
2019-05-23T10:03:25.016Z,6.45
2019-05-23T10:05:54.520Z,4.00
2019-05-23T10:08:24.004Z,6.40
2019-05-23T10:12:21.874Z,6.15
2019-05-23T10:14:49.437Z,3.20
2019-05-23T10:17:19.042Z,3.77
2019-05-23T10:19:48.492Z,5.73
2019-05-23T10:22:18.088Z,3.80
2019-05-23T10:24:47.536Z,4.87
2019-05-23T10:27:18.452Z,4.08
2019-05-23T10:29:48.001Z,10.15
2019-05-23T10:32:17.517Z,4.75
2019-05-23T10:34:47.017Z,4.85
2019-05-23T10:37:18.062Z,4.53
2019-05-23T10:39:50.743Z,3.60
2019-05-23T10:42:20.434Z,6.42
2019-05-23T10:44:49.799Z,3.12
2019-05-23T10:47:19.475Z,5.67
2019-05-23T10:49:48.684Z,4.90
2019-05-23T10:52:19.352Z,3.70
2019-05-23T10:54:48.873Z,3.50
2019-05-23T10:57:18.429Z,5.72
2019-05-23T10:59:48.174Z,3.60
2019-05-23T11:02:17.593Z,7.85
2019-05-23T11:04:47.236Z,7.00
2019-05-23T11:07:16.816Z,4.08
2019-05-23T11:09:47.028Z,2.80
2019-05-23T11:12:16.321Z,3.50
2019-05-23T11:14:46.180Z,3.65
2019-05-23T11:17:15.741Z,4.50
2019-05-23T11:19:45.245Z,6.92
2019-05-23T11:22:14.904Z,5.28
2019-05-23T11:24:44.365Z,2.50
2019-05-23T11:27:13.810Z,5.50
2019-05-23T11:29:43.262Z,2.75
2019-05-23T11:32:12.941Z,3.35
2019-05-23T11:34:42.474Z,3.60
2019-05-23T11:37:11.911Z,4.75
2019-05-23T11:39:49.872Z,2.40
2019-05-23T11:42:12.728Z,4.65
2019-05-23T11:44:42.504Z,3.87
2019-05-23T11:47:12.621Z,2.90
2019-05-23T11:49:42.986Z,4.50
2019-05-23T11:52:14.241Z,5.12
2019-05-23T11:54:44.991Z,3.55
2019-05-23T11:57:14.578Z,12.07
2019-05-23T11:59:43.964Z,4.40
2019-05-23T12:02:27.090Z,5.75
2019-05-23T12:04:58.335Z,3.42
2019-05-23T12:07:29.476Z,10.00
2019-05-23T12:09:58.992Z,2.55
2019-05-23T12:12:28.384Z,5.60
2019-05-23T12:14:57.898Z,9.20
2019-05-23T12:17:29.137Z,5.72
2019-05-23T12:19:58.841Z,2.85
2019-05-23T12:22:28.730Z,5.75
2019-05-23T12:24:58.388Z,5.95
2019-05-23T12:27:28.240Z,4.42
2019-05-23T12:29:57.885Z,2.98
2019-05-23T12:32:28.856Z,2.70
2019-05-23T12:35:10.456Z,2.45
2019-05-23T12:37:29.786Z,4.25
2019-05-23T12:40:00.290Z,3.98
2019-05-23T12:42:29.802Z,3.05
2019-05-23T12:44:59.243Z,2.85
2019-05-23T12:47:30.549Z,3.27
2019-05-23T12:50:01.879Z,2.00
2019-05-23T12:52:32.928Z,2.65
2019-05-23T12:55:02.572Z,3.85
2019-05-23T12:57:32.553Z,1.82
2019-05-23T13:00:02.333Z,6.33
2019-05-23T13:02:33.729Z,2.52
2019-05-23T13:05:04.247Z,2.08
2019-05-23T13:07:36.574Z,3.25
2019-05-23T13:10:06.341Z,2.85
2019-05-23T13:12:35.775Z,4.15
2019-05-23T13:15:06.011Z,2.22
2019-05-23T13:17:35.571Z,3.52
2019-05-23T13:20:23.056Z,2.47
2019-05-23T13:22:52.507Z,2.80
2019-05-23T13:25:22.401Z,2.37
2019-05-23T13:27:51.797Z,1.95
2019-05-23T13:30:21.420Z,2.02
2019-05-23T13:32:50.861Z,3.30
2019-05-23T13:35:20.567Z,2.70
2019-05-23T13:37:53.766Z,4.80
2019-05-23T13:40:21.359Z,2.50
2019-05-23T13:42:50.872Z,1.45
2019-05-23T13:45:20.486Z,1.75
2019-05-23T13:47:49.895Z,2.08
2019-05-23T13:50:20.428Z,2.42
2019-05-23T13:52:50.057Z,3.62
2019-05-23T13:55:19.791Z,2.50
2019-05-23T13:57:49.542Z,3.25
2019-05-23T14:00:19.405Z,1.82
2019-05-23T14:02:48.832Z,2.55
2019-05-23T14:05:19.389Z,2.98
2019-05-23T14:07:49.245Z,2.77
2019-05-23T14:10:18.933Z,2.47
2019-05-23T14:12:48.535Z,1.87
2019-05-23T14:15:19.750Z,4.75
2019-05-23T14:17:49.314Z,3.55
2019-05-23T14:23:01.473Z,4.72
2019-05-23T14:25:30.977Z,4.15
2019-05-23T14:28:09.197Z,3.65
2019-05-23T14:30:49.028Z,1.98
2019-05-23T14:33:25.845Z,3.17
2019-05-23T14:35:57.255Z,2.20
2019-05-23T14:38:31.127Z,5.72
2019-05-23T14:40:59.646Z,2.58
2019-05-23T14:43:29.608Z,2.75
2019-05-23T14:46:06.302Z,3.08
2019-05-23T14:48:39.990Z,2.00
2019-05-23T14:51:11.072Z,2.50
2019-05-23T14:56:34.066Z,2.50
2019-05-23T14:59:03.652Z,4.03
2019-05-23T15:01:34.800Z,2.92
2019-05-23T15:04:04.718Z,2.05
2019-05-23T15:06:34.826Z,4.60
2019-05-23T15:09:06.922Z,6.87
2019-05-23T15:11:37.568Z,5.72
2019-05-23T15:14:06.946Z,4.05
2019-05-23T15:16:36.425Z,4.95
2019-05-23T15:19:06.683Z,3.22
2019-05-23T15:21:36.155Z,2.58
2019-05-23T15:24:05.515Z,2.42
2019-05-23T15:28:27.115Z,3.52
2019-05-23T15:30:56.412Z,2.62
2019-05-23T15:33:26.807Z,8.53
2019-05-23T15:35:56.502Z,3.17
2019-05-23T15:38:25.868Z,5.67
2019-05-23T15:40:55.244Z,3.92
2019-05-23T15:43:24.520Z,5.22
2019-05-23T15:45:54.093Z,3.35
2019-05-23T15:48:23.501Z,1.80
2019-05-23T15:50:53.182Z,7.53
2019-05-23T15:53:27.491Z,3.05
2019-05-23T15:55:59.517Z,1.95
2019-05-23T15:58:33.421Z,1.37
2019-05-23T16:01:10.413Z,3.67
2019-05-23T16:03:41.367Z,4.95
2019-05-23T16:06:15.910Z,1.72
2019-05-23T16:08:45.682Z,4.12
2019-05-23T16:11:17.533Z,4.00
2019-05-23T16:16:28.232Z,2.67
2019-05-23T16:18:57.587Z,5.53
2019-05-23T16:21:27.756Z,2.95
2019-05-23T16:23:58.044Z,2.42
2019-05-23T16:26:29.123Z,4.12
2019-05-23T16:29:00.642Z,1.55
2019-05-23T16:31:30.060Z,2.08
2019-05-23T16:33:59.621Z,3.30
2019-05-23T16:36:28.931Z,1.60
2019-05-23T16:38:58.201Z,2.20
2019-05-23T16:41:27.451Z,3.25
2019-05-23T16:43:59.692Z,2.83
2019-05-23T16:46:29.937Z,3.62
2019-05-23T16:48:59.328Z,4.10
2019-05-23T16:51:28.636Z,1.70
2019-05-23T16:53:59.500Z,1.50
2019-05-23T16:56:42.716Z,2.27
2019-05-23T16:59:16.309Z,7.83
2019-05-23T17:04:39.471Z,3.10
2019-05-23T17:07:10.437Z,1.40
2019-05-23T17:12:38.305Z,4.72
2019-05-23T17:15:10.060Z,5.55
2019-05-23T17:18:00.825Z,2.00
2019-05-23T17:20:20.531Z,2.60
2019-05-23T17:23:30.183Z,3.30
2019-05-23T17:26:04.107Z,3.85
2019-05-23T17:28:51.657Z,2.58
2019-05-23T17:31:26.492Z,2.77
2019-05-23T17:33:56.063Z,3.33
2019-05-23T17:36:25.456Z,4.37
2019-05-23T17:38:55.134Z,2.42
2019-05-23T17:41:24.873Z,3.50
2019-05-23T17:43:54.419Z,3.00
2019-05-23T17:46:23.906Z,4.03
2019-05-23T17:48:53.341Z,6.80
2019-05-23T17:51:24.797Z,2.12
2019-05-23T17:53:54.859Z,4.35
2019-05-23T17:56:24.566Z,3.37
2019-05-23T17:58:54.031Z,3.17
2019-05-23T18:01:25.561Z,5.08
2019-05-23T18:03:55.224Z,2.70
2019-05-23T18:06:24.731Z,5.53
2019-05-23T18:08:54.486Z,2.50
2019-05-23T18:11:23.798Z,2.30
2019-05-23T18:13:53.231Z,4.05
2019-05-23T18:16:23.305Z,7.47
2019-05-23T18:18:52.784Z,2.65
2019-05-23T18:21:23.287Z,3.83
2019-05-23T18:23:52.793Z,2.95
2019-05-23T18:26:22.501Z,2.40
2019-05-23T18:28:51.845Z,1.98
2019-05-23T18:31:23.147Z,5.05
2019-05-23T18:33:53.062Z,5.10
2019-05-23T18:36:23.399Z,3.70
2019-05-23T18:38:53.130Z,4.40
2019-05-23T18:41:23.015Z,3.98
2019-05-23T18:43:52.819Z,3.87
2019-05-23T18:46:30.104Z,11.15
2019-05-23T18:49:01.396Z,8.08
2019-05-23T18:51:31.030Z,6.22
2019-05-23T18:54:00.526Z,7.40
2019-05-23T18:56:29.928Z,4.95
2019-05-23T18:58:59.758Z,5.67
2019-05-23T19:01:29.812Z,6.07
2019-05-23T19:03:59.194Z,4.60
2019-05-23T19:06:29.474Z,7.15
2019-05-23T19:08:58.924Z,6.12
2019-05-23T19:11:28.819Z,4.85
2019-05-23T19:13:58.032Z,7.75
2019-05-23T19:16:28.660Z,5.83
2019-05-23T19:18:58.436Z,5.87
2019-05-23T19:21:28.616Z,5.03
2019-05-23T19:23:58.365Z,11.28
2019-05-23T19:26:28.254Z,6.05
2019-05-23T19:28:57.711Z,6.05
2019-05-23T19:31:27.347Z,4.03
2019-05-23T19:33:57.011Z,5.27
2019-05-23T19:36:26.440Z,5.10
2019-05-23T19:38:55.948Z,5.03
2019-05-23T19:41:36.926Z,4.42
2019-05-23T19:43:57.077Z,6.37
2019-05-23T19:49:08.706Z,3.63
2019-05-23T19:51:38.334Z,3.10
2019-05-23T19:54:08.438Z,5.20
2019-05-23T19:56:39.167Z,2.50
2019-05-23T19:59:08.570Z,2.83
2019-05-23T20:01:39.923Z,5.75
2019-05-23T20:04:09.411Z,3.03
2019-05-23T20:06:39.037Z,3.97
2019-05-23T20:09:10.587Z,4.77
2019-05-23T20:11:53.234Z,3.10
2019-05-23T20:14:11.850Z,4.17
2019-05-23T20:16:41.040Z,6.20
2019-05-23T20:19:10.628Z,3.87
2019-05-23T20:21:40.183Z,3.27
2019-05-23T20:24:09.542Z,10.67
2019-05-23T20:26:39.263Z,4.60
2019-05-23T20:29:08.654Z,5.67
2019-05-23T20:31:38.261Z,10.40
2019-05-23T20:34:08.689Z,5.17
2019-05-23T20:36:39.074Z,16.77
2019-05-23T20:39:08.584Z,11.73
2019-05-23T20:41:40.545Z,11.60
2019-05-23T20:44:10.184Z,7.27
2019-05-23T20:46:41.583Z,11.00
2019-05-23T20:49:10.931Z,4.57
2019-05-23T20:51:40.754Z,4.93
2019-05-23T20:54:10.246Z,3.57
2019-05-23T20:56:39.634Z,9.30
2019-05-23T20:59:09.794Z,7.33
2019-05-23T21:01:40.505Z,6.60
2019-05-23T21:04:09.901Z,4.17
2019-05-23T21:06:39.302Z,2.67
2019-05-23T21:09:08.822Z,3.23
2019-05-23T21:11:38.419Z,6.83
2019-05-23T21:14:07.817Z,6.17
2019-05-23T21:16:37.170Z,3.77
2019-05-23T21:19:06.756Z,5.40
2019-05-23T21:21:37.099Z,3.40
2019-05-23T21:24:06.658Z,5.10
2019-05-23T21:26:36.163Z,5.70
2019-05-23T21:29:05.689Z,2.20
2019-05-23T21:31:35.275Z,3.87
2019-05-23T21:34:04.805Z,7.43
2019-05-23T21:36:34.664Z,2.93
2019-05-23T21:39:07.245Z,3.40
2019-05-23T21:41:36.456Z,2.60
2019-05-23T21:44:05.858Z,2.97
2019-05-23T21:46:35.575Z,3.53
2019-05-23T21:49:05.193Z,3.67
2019-05-23T21:51:34.485Z,3.60
2019-05-23T21:54:03.874Z,3.03
2019-05-23T21:56:33.482Z,6.10
2019-05-23T21:59:04.185Z,4.10
2019-05-23T22:01:35.176Z,5.60
2019-05-23T22:04:22.884Z,4.20
2019-05-23T22:06:56.918Z,4.00
2019-05-23T22:09:26.247Z,5.17
2019-05-23T22:11:56.051Z,3.43
2019-05-23T22:14:25.405Z,5.43
2019-05-23T22:16:54.610Z,3.97
2019-05-23T22:19:24.244Z,5.63
2019-05-23T22:24:38.656Z,5.43
2019-05-23T22:27:09.333Z,3.50
2019-05-23T22:29:38.897Z,4.63
2019-05-23T22:32:10.233Z,3.20
2019-05-23T22:34:47.037Z,7.87
2019-05-23T22:37:18.385Z,4.90
2019-05-23T22:39:47.915Z,5.67
2019-05-23T22:42:19.030Z,3.47
2019-05-23T22:44:48.348Z,3.93
2019-05-23T22:47:18.435Z,5.30
2019-05-23T22:49:48.020Z,5.20
2019-05-23T22:52:17.457Z,5.53
2019-05-23T22:54:46.651Z,6.70
2019-05-23T22:57:15.954Z,3.67
2019-05-23T22:59:45.652Z,4.03
2019-05-23T23:02:16.772Z,3.73
2019-05-23T23:04:46.206Z,3.87
2019-05-23T23:07:16.355Z,3.50
2019-05-23T23:09:45.930Z,3.60
2019-05-23T23:12:16.255Z,4.13
2019-05-23T23:14:45.757Z,4.03
2019-05-23T23:17:15.683Z,3.37
2019-05-23T23:19:44.750Z,5.00
2019-05-23T23:22:14.175Z,5.07
2019-05-23T23:24:43.877Z,8.37
2019-05-23T23:27:13.484Z,3.40
2019-05-23T23:29:43.026Z,3.80
2019-05-23T23:32:12.600Z,4.77
2019-05-23T23:34:42.166Z,7.83
2019-05-23T23:37:11.567Z,5.27
2019-05-23T23:39:41.310Z,3.63
2019-05-23T23:42:11.388Z,4.37
2019-05-23T23:44:40.118Z,3.60
2019-05-23T23:47:27.533Z,3.20
2019-05-23T23:53:07.111Z,2.80
2019-05-23T23:55:54.521Z,4.93
2019-05-23T23:58:23.315Z,4.37
